Accueil
METAR-TAF:

METAR-TAF

Aéroports :

Aéroport international de Sunan

Pyongyang, Corée du Nord

latitude: 39-02N, longitude: 125-47E, altitude: 36 m

METAR: absent

Heure: 10:27 (01:57 UTC)

Prévision

Le bulletin a été fait il y a 21 heures et 37 minutes, à 04:20 UTC
Prévision valable du 21 à 06 UTC au 22 à 06 UTC
Vent 10 kt de ouest
Visibilité: 6000 m
Temporairement
du 21 à 18 UTC au 21 à 24 UTC
Visibilité: 0500 m
brouillard

TAF: ZKPY 210420Z 2106/2206 26005MPS 6000 NSC TX07/2106Z TNM05/2122Z TEMPO 2118/2124 0500 FG

Observations et prévisions météorologiques de plus de 4000 aéroports (messages METAR et TAF).

Les stations disponibles sont représentées par des disques jaunes et rouges sur la carte.

Passer la souris dessus pour voir le nom de la station.

Cliquer dessus pour voir les observations et prévisions météorologiques.

Pour changer de carte: cliquez sur les boutons verts avec une croix noire pour zoomer, sur le bouton vert avec un tiret pour effectuer un zoom arrière, ou sur les flèches vertes pour les cartes adjacentes.


METAR-TAF: